sensor_id;sensor_type;location;lat;lon;timestamp;pressure;altitude;pressure_sealevel;temperature;humidity
50682;BME280;36779;52.168;20.878;2023-08-01T00:01:42;99661.80;;;18.06;55.46
50682;BME280;36779;52.168;20.878;2023-08-01T00:04:16;99658.54;;;18.04;55.53
50682;BME280;36779;52.168;20.878;2023-08-01T00:06:47;99657.80;;;18.03;55.59
50682;BME280;36779;52.168;20.878;2023-08-01T00:09:25;99659.61;;;18.02;55.54
50682;BME280;36779;52.168;20.878;2023-08-01T00:12:07;99659.14;;;18.01;55.64
50682;BME280;36779;52.168;20.878;2023-08-01T00:14:38;99656.17;;;17.99;55.59
50682;BME280;36779;52.168;20.878;2023-08-01T00:17:12;99655.39;;;17.98;55.62
50682;BME280;36779;52.168;20.878;2023-08-01T00:19:44;99651.55;;;17.97;55.77
50682;BME280;36779;52.168;20.878;2023-08-01T00:22:14;99653.27;;;17.97;55.76
50682;BME280;36779;52.168;20.878;2023-08-01T00:24:45;99652.45;;;17.96;55.83
50682;BME280;36779;52.168;20.878;2023-08-01T00:27:17;99655.27;;;17.95;55.78
50682;BME280;36779;52.168;20.878;2023-08-01T00:29:48;99651.04;;;17.96;55.87
50682;BME280;36779;52.168;20.878;2023-08-01T00:32:20;99649.92;;;17.97;55.82
50682;BME280;36779;52.168;20.878;2023-08-01T00:34:52;99648.15;;;17.99;55.84
50682;BME280;36779;52.168;20.878;2023-08-01T00:37:24;99643.86;;;18.02;55.87
50682;BME280;36779;52.168;20.878;2023-08-01T00:39:57;99638.02;;;18.06;56.03
50682;BME280;36779;52.168;20.878;2023-08-01T00:42:30;99641.35;;;18.09;55.99
50682;BME280;36779;52.168;20.878;2023-08-01T00:45:03;99641.32;;;18.11;55.99
50682;BME280;36779;52.168;20.878;2023-08-01T00:47:42;99636.33;;;18.15;56.04
50682;BME280;36779;52.168;20.878;2023-08-01T00:50:15;99634.03;;;18.18;56.13
50682;BME280;36779;52.168;20.878;2023-08-01T00:52:50;99629.28;;;18.20;56.12
50682;BME280;36779;52.168;20.878;2023-08-01T00:55:22;99625.15;;;18.21;56.15
50682;BME280;36779;52.168;20.878;2023-08-01T00:57:54;99613.56;;;18.22;56.16
50682;BME280;36779;52.168;20.878;2023-08-01T01:00:25;99607.70;;;18.20;56.24
50682;BME280;36779;52.168;20.878;2023-08-01T01:02:56;99597.66;;;18.17;56.29
50682;BME280;36779;52.168;20.878;2023-08-01T01:05:27;99595.48;;;18.16;56.34
50682;BME280;36779;52.168;20.878;2023-08-01T01:08:02;99593.12;;;18.16;56.31
50682;BME280;36779;52.168;20.878;2023-08-01T01:10:37;99592.20;;;18.13;56.22
50682;BME280;36779;52.168;20.878;2023-08-01T01:13:07;99592.64;;;18.11;56.38
50682;BME280;36779;52.168;20.878;2023-08-01T01:15:39;99593.72;;;18.09;56.22
50682;BME280;36779;52.168;20.878;2023-08-01T01:18:11;99589.10;;;18.07;56.43
50682;BME280;36779;52.168;20.878;2023-08-01T01:20:42;99586.20;;;18.06;56.32
50682;BME280;36779;52.168;20.878;2023-08-01T01:23:16;99583.03;;;18.04;56.41
50682;BME280;36779;52.168;20.878;2023-08-01T01:25:47;99574.02;;;18.02;56.19
50682;BME280;36779;52.168;20.878;2023-08-01T01:28:19;99578.73;;;18.01;56.53
50682;BME280;36779;52.168;20.878;2023-08-01T01:30:51;99582.08;;;17.99;56.47
50682;BME280;36779;52.168;20.878;2023-08-01T01:33:24;99578.28;;;17.98;56.49
50682;BME280;36779;52.168;20.878;2023-08-01T01:35:57;99568.13;;;17.97;56.57
50682;BME280;36779;52.168;20.878;2023-08-01T01:38:30;99561.65;;;17.97;56.42
50682;BME280;36779;52.168;20.878;2023-08-01T01:41:03;99554.39;;;17.98;56.43
50682;BME280;36779;52.168;20.878;2023-08-01T01:43:34;99551.36;;;18.00;56.58
50682;BME280;36779;52.168;20.878;2023-08-01T01:46:14;99547.89;;;18.01;56.60
50682;BME280;36779;52.168;20.878;2023-08-01T01:48:45;99547.64;;;18.04;56.60
50682;BME280;36779;52.168;20.878;2023-08-01T01:51:17;99544.10;;;18.06;56.54
50682;BME280;36779;52.168;20.878;2023-08-01T01:53:48;99546.14;;;18.08;56.71
50682;BME280;36779;52.168;20.878;2023-08-01T01:56:18;99543.48;;;18.10;56.65
50682;BME280;36779;52.168;20.878;2023-08-01T01:58:49;99542.00;;;18.12;56.81
50682;BME280;36779;52.168;20.878;2023-08-01T02:01:20;99542.58;;;18.13;56.71
50682;BME280;36779;52.168;20.878;2023-08-01T02:03:51;99541.89;;;18.11;56.79
50682;BME280;36779;52.168;20.878;2023-08-01T02:06:22;99537.81;;;18.10;56.81
50682;BME280;36779;52.168;20.878;2023-08-01T02:08:54;99534.30;;;18.07;56.79
50682;BME280;36779;52.168;20.878;2023-08-01T02:11:28;99531.20;;;18.04;56.79
50682;BME280;36779;52.168;20.878;2023-08-01T02:14:03;99523.31;;;18.00;56.89
50682;BME280;36779;52.168;20.878;2023-08-01T02:16:42;99520.07;;;17.96;56.95
50682;BME280;36779;52.168;20.878;2023-08-01T02:19:13;99512.77;;;17.92;56.73
50682;BME280;36779;52.168;20.878;2023-08-01T02:21:44;99507.02;;;17.89;56.81
50682;BME280;36779;52.168;20.878;2023-08-01T02:24:15;99503.65;;;17.85;56.94
50682;BME280;36779;52.168;20.878;2023-08-01T02:26:46;99495.85;;;17.82;56.85
50682;BME280;36779;52.168;20.878;2023-08-01T02:29:19;99493.83;;;17.78;56.93
50682;BME280;36779;52.168;20.878;2023-08-01T02:31:50;99490.58;;;17.76;57.00
50682;BME280;36779;52.168;20.878;2023-08-01T02:34:26;99491.73;;;17.73;57.03
50682;BME280;36779;52.168;20.878;2023-08-01T02:36:59;99483.16;;;17.69;57.02
50682;BME280;36779;52.168;20.878;2023-08-01T02:39:30;99482.36;;;17.68;57.01
50682;BME280;36779;52.168;20.878;2023-08-01T02:42:04;99483.88;;;17.66;57.09
50682;BME280;36779;52.168;20.878;2023-08-01T02:44:38;99478.20;;;17.65;57.02
50682;BME280;36779;52.168;20.878;2023-08-01T02:47:09;99475.09;;;17.65;57.08
50682;BME280;36779;52.168;20.878;2023-08-01T02:49:42;99473.83;;;17.67;57.08
50682;BME280;36779;52.168;20.878;2023-08-01T02:52:13;99471.80;;;17.70;57.13
50682;BME280;36779;52.168;20.878;2023-08-01T02:54:44;99465.00;;;17.72;57.28
50682;BME280;36779;52.168;20.878;2023-08-01T02:57:15;99462.48;;;17.74;57.33
50682;BME280;36779;52.168;20.878;2023-08-01T02:59:51;99462.98;;;17.78;57.31
50682;BME280;36779;52.168;20.878;2023-08-01T03:02:34;99457.55;;;17.81;57.34
50682;BME280;36779;52.168;20.878;2023-08-01T03:05:07;99456.81;;;17.83;57.43
50682;BME280;36779;52.168;20.878;2023-08-01T03:07:42;99457.89;;;17.86;57.40
50682;BME280;36779;52.168;20.878;2023-08-01T03:10:13;99455.88;;;17.87;57.42
50682;BME280;36779;52.168;20.878;2023-08-01T03:13:03;99451.14;;;17.87;57.47
50682;BME280;36779;52.168;20.878;2023-08-01T03:15:35;99448.38;;;17.87;57.43
50682;BME280;36779;52.168;20.878;2023-08-01T03:18:05;99446.16;;;17.85;57.47
50682;BME280;36779;52.168;20.878;2023-08-01T03:20:39;99439.98;;;17.83;57.52
50682;BME280;36779;52.168;20.878;2023-08-01T03:23:12;99442.43;;;17.82;57.55
50682;BME280;36779;52.168;20.878;2023-08-01T03:25:43;99432.48;;;17.80;57.49
50682;BME280;36779;52.168;20.878;2023-08-01T03:28:14;99430.91;;;17.80;57.46
50682;BME280;36779;52.168;20.878;2023-08-01T03:30:48;99429.29;;;17.80;57.53
50682;BME280;36779;52.168;20.878;2023-08-01T03:33:19;99430.50;;;17.79;57.60
50682;BME280;36779;52.168;20.878;2023-08-01T03:35:49;99427.94;;;17.78;57.56
50682;BME280;36779;52.168;20.878;2023-08-01T03:38:22;99424.87;;;17.78;57.56
50682;BME280;36779;52.168;20.878;2023-08-01T03:40:56;99420.98;;;17.78;57.64
50682;BME280;36779;52.168;20.878;2023-08-01T03:43:29;99421.52;;;17.78;57.66
50682;BME280;36779;52.168;20.878;2023-08-01T03:46:08;99418.89;;;17.79;57.61
50682;BME280;36779;52.168;20.878;2023-08-01T03:48:44;99418.02;;;17.80;57.55
50682;BME280;36779;52.168;20.878;2023-08-01T03:51:19;99412.45;;;17.82;57.69
50682;BME280;36779;52.168;20.878;2023-08-01T03:53:50;99409.17;;;17.84;57.65
50682;BME280;36779;52.168;20.878;2023-08-01T03:56:37;99406.92;;;17.87;57.79
50682;BME280;36779;52.168;20.878;2023-08-01T03:59:13;99410.66;;;17.93;57.70
50682;BME280;36779;52.168;20.878;2023-08-01T04:01:46;99405.34;;;17.98;57.66
50682;BME280;36779;52.168;20.878;2023-08-01T04:04:17;99409.42;;;18.04;57.76
50682;BME280;36779;52.168;20.878;2023-08-01T04:06:48;99404.42;;;18.10;57.70
50682;BME280;36779;52.168;20.878;2023-08-01T04:09:18;99406.72;;;18.16;57.74
50682;BME280;36779;52.168;20.878;2023-08-01T04:11:49;99406.38;;;18.20;57.82
50682;BME280;36779;52.168;20.878;2023-08-01T04:14:22;99403.34;;;18.24;57.79
50682;BME280;36779;52.168;20.878;2023-08-01T04:16:54;99404.46;;;18.26;57.71
50682;BME280;36779;52.168;20.878;2023-08-01T04:19:25;99404.77;;;18.27;57.77
50682;BME280;36779;52.168;20.878;2023-08-01T04:21:58;99401.59;;;18.28;57.84
50682;BME280;36779;52.168;20.878;2023-08-01T04:24:29;99400.30;;;18.28;57.88
50682;BME280;36779;52.168;20.878;2023-08-01T04:27:05;99402.51;;;18.28;57.69
50682;BME280;36779;52.168;20.878;2023-08-01T04:29:38;99400.91;;;18.29;57.75
50682;BME280;36779;52.168;20.878;2023-08-01T04:32:09;99394.58;;;18.30;57.80
50682;BME280;36779;52.168;20.878;2023-08-01T04:34:42;99390.02;;;18.32;57.83
50682;BME280;36779;52.168;20.878;2023-08-01T04:37:13;99381.74;;;18.33;57.80
50682;BME280;36779;52.168;20.878;2023-08-01T04:39:46;99381.50;;;18.37;57.89
50682;BME280;36779;52.168;20.878;2023-08-01T04:42:19;99381.33;;;18.44;57.95
50682;BME280;36779;52.168;20.878;2023-08-01T04:44:53;99379.07;;;18.53;57.83
50682;BME280;36779;52.168;20.878;2023-08-01T04:47:24;99380.72;;;18.64;58.06
50682;BME280;36779;52.168;20.878;2023-08-01T04:49:55;99379.17;;;18.76;57.91
50682;BME280;36779;52.168;20.878;2023-08-01T04:52:25;99374.19;;;18.85;57.89
50682;BME280;36779;52.168;20.878;2023-08-01T04:55:03;99368.63;;;18.93;57.91
50682;BME280;36779;52.168;20.878;2023-08-01T04:57:34;99371.91;;;18.99;57.72
50682;BME280;36779;52.168;20.878;2023-08-01T05:00:06;99368.94;;;19.02;57.80
50682;BME280;36779;52.168;20.878;2023-08-01T05:02:41;99365.92;;;19.08;57.74
50682;BME280;36779;52.168;20.878;2023-08-01T05:05:12;99366.26;;;19.30;58.16
50682;BME280;36779;52.168;20.878;2023-08-01T05:07:45;99367.09;;;19.61;58.38
50682;BME280;36779;52.168;20.878;2023-08-01T05:10:16;99367.83;;;19.89;58.05
50682;BME280;36779;52.168;20.878;2023-08-01T05:12:47;99368.55;;;20.01;57.90
50682;BME280;36779;52.168;20.878;2023-08-01T05:15:18;99368.19;;;20.10;57.62
50682;BME280;36779;52.168;20.878;2023-08-01T05:17:49;99371.05;;;20.18;57.44
50682;BME280;36779;52.168;20.878;2023-08-01T05:20:19;99368.08;;;20.14;57.26
50682;BME280;36779;52.168;20.878;2023-08-01T05:22:50;99365.00;;;20.07;57.14
50682;BME280;36779;52.168;20.878;2023-08-01T05:25:24;99361.97;;;20.00;57.19
50682;BME280;36779;52.168;20.878;2023-08-01T05:27:55;99361.02;;;19.93;57.17
50682;BME280;36779;52.168;20.878;2023-08-01T05:30:26;99360.08;;;19.89;57.11
50682;BME280;36779;52.168;20.878;2023-08-01T05:32:57;99357.41;;;19.86;57.21
50682;BME280;36779;52.168;20.878;2023-08-01T05:35:27;99355.35;;;19.87;57.24
50682;BME280;36779;52.168;20.878;2023-08-01T05:37:58;99355.20;;;19.87;57.20
50682;BME280;36779;52.168;20.878;2023-08-01T05:40:30;99350.07;;;19.85;57.08
50682;BME280;36779;52.168;20.878;2023-08-01T05:43:01;99346.41;;;19.85;57.24
50682;BME280;36779;52.168;20.878;2023-08-01T05:45:34;99348.50;;;19.92;57.17
50682;BME280;36779;52.168;20.878;2023-08-01T05:48:06;99341.73;;;20.00;57.26
50682;BME280;36779;52.168;20.878;2023-08-01T05:50:36;99342.27;;;20.13;57.40
50682;BME280;36779;52.168;20.878;2023-08-01T05:53:07;99339.70;;;20.38;57.48
50682;BME280;36779;52.168;20.878;2023-08-01T05:55:38;99342.05;;;20.60;57.41
50682;BME280;36779;52.168;20.878;2023-08-01T05:58:09;99341.11;;;20.71;57.04
50682;BME280;36779;52.168;20.878;2023-08-01T06:00:40;99342.55;;;20.75;56.93
50682;BME280;36779;52.168;20.878;2023-08-01T06:03:11;99336.25;;;20.84;56.95
50682;BME280;36779;52.168;20.878;2023-08-01T06:05:42;99335.84;;;20.90;56.83
50682;BME280;36779;52.168;20.878;2023-08-01T06:08:13;99335.71;;;20.89;56.64
50682;BME280;36779;52.168;20.878;2023-08-01T06:10:45;99333.33;;;20.88;56.62
50682;BME280;36779;52.168;20.878;2023-08-01T06:13:16;99326.64;;;20.86;56.61
50682;BME280;36779;52.168;20.878;2023-08-01T06:15:46;99325.30;;;20.88;56.69
50682;BME280;36779;52.168;20.878;2023-08-01T06:18:17;99325.77;;;20.91;56.72
50682;BME280;36779;52.168;20.878;2023-08-01T06:20:48;99319.88;;;20.92;56.59
50682;BME280;36779;52.168;20.878;2023-08-01T06:23:19;99320.95;;;20.91;56.53
50682;BME280;36779;52.168;20.878;2023-08-01T06:25:50;99314.64;;;20.95;56.63
50682;BME280;36779;52.168;20.878;2023-08-01T06:28:21;99315.60;;;20.99;56.52
50682;BME280;36779;52.168;20.878;2023-08-01T06:30:52;99311.95;;;21.03;56.60
50682;BME280;36779;52.168;20.878;2023-08-01T06:33:23;99312.09;;;21.05;56.52
50682;BME280;36779;52.168;20.878;2023-08-01T06:35:54;99312.02;;;21.10;56.48
50682;BME280;36779;52.168;20.878;2023-08-01T06:38:25;99305.67;;;21.15;56.51
50682;BME280;36779;52.168;20.878;2023-08-01T06:40:56;99304.87;;;21.23;56.52
50682;BME280;36779;52.168;20.878;2023-08-01T06:43:26;99298.67;;;21.27;56.45
50682;BME280;36779;52.168;20.878;2023-08-01T06:45:57;99297.02;;;21.29;56.44
50682;BME280;36779;52.168;20.878;2023-08-01T06:48:44;99293.90;;;21.37;56.44
50682;BME280;36779;52.168;20.878;2023-08-01T06:51:15;99295.05;;;21.46;56.48
50682;BME280;36779;52.168;20.878;2023-08-01T06:53:46;99294.74;;;21.56;56.40
50682;BME280;36779;52.168;20.878;2023-08-01T06:56:16;99288.67;;;21.65;56.27
50682;BME280;36779;52.168;20.878;2023-08-01T06:58:47;99285.83;;;21.76;56.34
50682;BME280;36779;52.168;20.878;2023-08-01T07:01:19;99276.36;;;21.90;56.41
50682;BME280;36779;52.168;20.878;2023-08-01T07:03:52;99275.17;;;22.05;56.21
50682;BME280;36779;52.168;20.878;2023-08-01T07:06:23;99273.73;;;22.17;56.24
50682;BME280;36779;52.168;20.878;2023-08-01T07:08:54;99272.99;;;22.34;56.16
50682;BME280;36779;52.168;20.878;2023-08-01T07:11:26;99270.59;;;22.47;56.07
50682;BME280;36779;52.168;20.878;2023-08-01T07:13:57;99273.05;;;22.59;55.91
50682;BME280;36779;52.168;20.878;2023-08-01T07:16:28;99269.98;;;22.66;55.78
50682;BME280;36779;52.168;20.878;2023-08-01T07:19:00;99268.70;;;22.73;55.75
50682;BME280;36779;52.168;20.878;2023-08-01T07:21:31;99270.98;;;22.81;55.72
50682;BME280;36779;52.168;20.878;2023-08-01T07:24:02;99264.63;;;22.85;55.52
50682;BME280;36779;52.168;20.878;2023-08-01T07:26:33;99260.73;;;22.88;55.43
50682;BME280;36779;52.168;20.878;2023-08-01T07:29:04;99261.16;;;22.91;55.34
50682;BME280;36779;52.168;20.878;2023-08-01T07:31:37;99263.43;;;22.97;55.47
50682;BME280;36779;52.168;20.878;2023-08-01T07:34:08;99261.64;;;23.04;55.36
50682;BME280;36779;52.168;20.878;2023-08-01T07:36:39;99253.76;;;23.10;55.26
50682;BME280;36779;52.168;20.878;2023-08-01T07:39:10;99258.54;;;23.17;55.19
50682;BME280;36779;52.168;20.878;2023-08-01T07:41:41;99250.44;;;23.21;55.15
50682;BME280;36779;52.168;20.878;2023-08-01T07:44:12;99251.74;;;23.25;55.16
50682;BME280;36779;52.168;20.878;2023-08-01T07:46:43;99251.14;;;23.27;54.95
50682;BME280;36779;52.168;20.878;2023-08-01T07:49:14;99250.86;;;23.23;54.83
50682;BME280;36779;52.168;20.878;2023-08-01T07:51:45;99248.31;;;23.19;54.75
50682;BME280;36779;52.168;20.878;2023-08-01T07:54:16;99247.94;;;23.19;54.73
50682;BME280;36779;52.168;20.878;2023-08-01T07:56:47;99243.21;;;23.19;54.64
50682;BME280;36779;52.168;20.878;2023-08-01T07:59:18;99241.03;;;23.23;54.77
50682;BME280;36779;52.168;20.878;2023-08-01T08:01:49;99243.80;;;23.31;54.87
50682;BME280;36779;52.168;20.878;2023-08-01T08:04:21;99235.35;;;23.41;54.77
50682;BME280;36779;52.168;20.878;2023-08-01T08:06:51;99234.48;;;23.51;54.74
50682;BME280;36779;52.168;20.878;2023-08-01T08:09:24;99234.27;;;23.59;54.66
50682;BME280;36779;52.168;20.878;2023-08-01T08:11:55;99233.73;;;23.70;54.71
50682;BME280;36779;52.168;20.878;2023-08-01T08:14:27;99235.02;;;23.79;54.64
50682;BME280;36779;52.168;20.878;2023-08-01T08:17:01;99224.08;;;23.83;54.41
50682;BME280;36779;52.168;20.878;2023-08-01T08:19:33;99225.85;;;23.88;54.38
50682;BME280;36779;52.168;20.878;2023-08-01T08:22:04;99224.48;;;23.89;54.21
50682;BME280;36779;52.168;20.878;2023-08-01T08:24:35;99219.67;;;23.93;54.18
50682;BME280;36779;52.168;20.878;2023-08-01T08:27:07;99217.66;;;23.92;54.19
50682;BME280;36779;52.168;20.878;2023-08-01T08:29:37;99216.27;;;23.90;54.06
50682;BME280;36779;52.168;20.878;2023-08-01T08:32:08;99215.09;;;23.85;54.01
50682;BME280;36779;52.168;20.878;2023-08-01T08:34:39;99218.86;;;23.80;53.88
50682;BME280;36779;52.168;20.878;2023-08-01T08:37:10;99221.83;;;23.71;53.76
50682;BME280;36779;52.168;20.878;2023-08-01T08:39:40;99221.66;;;23.63;53.74
50682;BME280;36779;52.168;20.878;2023-08-01T08:42:11;99224.77;;;23.56;53.84
50682;BME280;36779;52.168;20.878;2023-08-01T08:44:43;99221.95;;;23.51;53.73
50682;BME280;36779;52.168;20.878;2023-08-01T08:47:14;99216.80;;;23.44;53.71
50682;BME280;36779;52.168;20.878;2023-08-01T08:49:47;99214.36;;;23.38;53.69
50682;BME280;36779;52.168;20.878;2023-08-01T08:52:19;99211.60;;;23.32;53.74
50682;BME280;36779;52.168;20.878;2023-08-01T08:54:52;99215.63;;;23.28;53.65
50682;BME280;36779;52.168;20.878;2023-08-01T08:57:23;99214.83;;;23.22;53.72
50682;BME280;36779;52.168;20.878;2023-08-01T08:59:54;99213.91;;;23.15;53.67
50682;BME280;36779;52.168;20.878;2023-08-01T09:02:26;99211.58;;;23.09;53.66
50682;BME280;36779;52.168;20.878;2023-08-01T09:04:58;99204.84;;;23.07;53.73
50682;BME280;36779;52.168;20.878;2023-08-01T09:07:30;99195.66;;;23.07;53.78
50682;BME280;36779;52.168;20.878;2023-08-01T09:10:06;99191.20;;;23.07;53.77
50682;BME280;36779;52.168;20.878;2023-08-01T09:12:37;99187.89;;;23.09;53.71
50682;BME280;36779;52.168;20.878;2023-08-01T09:15:09;99189.34;;;23.13;53.76
50682;BME280;36779;52.168;20.878;2023-08-01T09:17:50;99187.27;;;23.18;53.76
50682;BME280;36779;52.168;20.878;2023-08-01T09:20:22;99184.66;;;23.21;53.75
50682;BME280;36779;52.168;20.878;2023-08-01T09:22:52;99178.55;;;23.23;53.66
50682;BME280;36779;52.168;20.878;2023-08-01T09:25:31;99177.90;;;23.28;53.66
50682;BME280;36779;52.168;20.878;2023-08-01T09:28:04;99173.52;;;23.37;53.74
50682;BME280;36779;52.168;20.878;2023-08-01T09:30:46;99177.09;;;23.47;53.84
50682;BME280;36779;52.168;20.878;2023-08-01T09:33:18;99173.42;;;23.56;53.72
50682;BME280;36779;52.168;20.878;2023-08-01T09:35:48;99174.77;;;23.61;53.54
50682;BME280;36779;52.168;20.878;2023-08-01T09:38:20;99179.55;;;23.64;53.51
50682;BME280;36779;52.168;20.878;2023-08-01T09:40:51;99174.70;;;23.67;53.50
50682;BME280;36779;52.168;20.878;2023-08-01T09:43:21;99175.34;;;23.75;53.58
50682;BME280;36779;52.168;20.878;2023-08-01T09:45:53;99176.46;;;23.81;53.46
50682;BME280;36779;52.168;20.878;2023-08-01T09:48:25;99177.08;;;23.89;53.53
50682;BME280;36779;52.168;20.878;2023-08-01T09:51:08;99171.71;;;23.92;53.35
50682;BME280;36779;52.168;20.878;2023-08-01T09:53:47;99169.94;;;23.90;53.21
50682;BME280;36779;52.168;20.878;2023-08-01T09:56:19;99171.23;;;23.83;53.03
50682;BME280;36779;52.168;20.878;2023-08-01T09:58:52;99171.64;;;23.77;53.08
50682;BME280;36779;52.168;20.878;2023-08-01T10:01:23;99171.33;;;23.72;53.07
50682;BME280;36779;52.168;20.878;2023-08-01T10:03:54;99169.59;;;23.71;53.10
50682;BME280;36779;52.168;20.878;2023-08-01T10:06:28;99173.67;;;23.73;53.13
50682;BME280;36779;52.168;20.878;2023-08-01T10:08:59;99178.40;;;23.72;53.07
50682;BME280;36779;52.168;20.878;2023-08-01T10:11:30;99175.52;;;23.68;53.09
50682;BME280;36779;52.168;20.878;2023-08-01T10:14:03;99176.18;;;23.62;53.04
50682;BME280;36779;52.168;20.878;2023-08-01T10:16:35;99175.15;;;23.59;53.01
50682;BME280;36779;52.168;20.878;2023-08-01T10:19:07;99176.14;;;23.54;53.06
50682;BME280;36779;52.168;20.878;2023-08-01T10:21:41;99177.38;;;23.44;52.95
50682;BME280;36779;52.168;20.878;2023-08-01T10:24:12;99181.48;;;23.34;53.00
50682;BME280;36779;52.168;20.878;2023-08-01T10:26:45;99178.45;;;23.23;52.92
50682;BME280;36779;52.168;20.878;2023-08-01T10:29:16;99179.55;;;23.05;52.87
50682;BME280;36779;52.168;20.878;2023-08-01T10:31:53;99180.03;;;22.88;53.00
50682;BME280;36779;52.168;20.878;2023-08-01T10:34:24;99175.85;;;22.74;53.15
50682;BME280;36779;52.168;20.878;2023-08-01T10:36:55;99175.13;;;22.64;53.15
50682;BME280;36779;52.168;20.878;2023-08-01T10:39:26;99174.95;;;22.53;53.21
50682;BME280;36779;52.168;20.878;2023-08-01T10:41:58;99175.71;;;22.43;53.35
50682;BME280;36779;52.168;20.878;2023-08-01T10:44:29;99174.78;;;22.37;53.39
50682;BME280;36779;52.168;20.878;2023-08-01T10:47:02;99173.90;;;22.29;53.44
50682;BME280;36779;52.168;20.878;2023-08-01T10:49:37;99174.16;;;22.24;53.57
50682;BME280;36779;52.168;20.878;2023-08-01T10:52:16;99170.16;;;22.17;53.54
50682;BME280;36779;52.168;20.878;2023-08-01T10:54:47;99167.35;;;22.10;53.78
50682;BME280;36779;52.168;20.878;2023-08-01T10:57:26;99165.92;;;22.03;53.73
50682;BME280;36779;52.168;20.878;2023-08-01T10:59:57;99160.30;;;21.95;53.92
50682;BME280;36779;52.168;20.878;2023-08-01T11:02:29;99157.68;;;21.90;53.89
50682;BME280;36779;52.168;20.878;2023-08-01T11:05:03;99162.71;;;21.83;54.07
50682;BME280;36779;52.168;20.878;2023-08-01T11:07:36;99161.56;;;21.78;54.01
50682;BME280;36779;52.168;20.878;2023-08-01T11:10:08;99161.65;;;21.75;54.11
50682;BME280;36779;52.168;20.878;2023-08-01T11:12:40;99161.56;;;21.69;54.20
50682;BME280;36779;52.168;20.878;2023-08-01T11:15:11;99160.35;;;21.64;54.35
50682;BME280;36779;52.168;20.878;2023-08-01T11:17:46;99161.16;;;21.60;54.55
50682;BME280;36779;52.168;20.878;2023-08-01T11:20:18;99159.14;;;21.58;54.59
50682;BME280;36779;52.168;20.878;2023-08-01T11:22:53;99158.58;;;21.55;54.70
50682;BME280;36779;52.168;20.878;2023-08-01T11:28:14;99153.09;;;21.53;54.87
50682;BME280;36779;52.168;20.878;2023-08-01T11:30:47;99156.73;;;21.54;54.86
50682;BME280;36779;52.168;20.878;2023-08-01T11:33:19;99159.39;;;21.55;54.99
50682;BME280;36779;52.168;20.878;2023-08-01T11:35:53;99152.89;;;21.56;55.12
50682;BME280;36779;52.168;20.878;2023-08-01T11:38:27;99148.35;;;21.59;55.17
50682;BME280;36779;52.168;20.878;2023-08-01T11:41:03;99147.11;;;21.61;55.27
50682;BME280;36779;52.168;20.878;2023-08-01T11:43:41;99143.98;;;21.64;55.35
50682;BME280;36779;52.168;20.878;2023-08-01T11:46:12;99140.74;;;21.72;55.43
50682;BME280;36779;52.168;20.878;2023-08-01T11:48:45;99134.77;;;21.79;55.66
50682;BME280;36779;52.168;20.878;2023-08-01T11:51:17;99129.45;;;21.82;55.64
50682;BME280;36779;52.168;20.878;2023-08-01T11:53:47;99128.70;;;21.87;55.64
50682;BME280;36779;52.168;20.878;2023-08-01T11:56:28;99119.45;;;21.89;55.70
50682;BME280;36779;52.168;20.878;2023-08-01T11:58:59;99113.10;;;21.92;55.76
50682;BME280;36779;52.168;20.878;2023-08-01T12:01:30;99110.48;;;21.91;55.74
50682;BME280;36779;52.168;20.878;2023-08-01T12:04:03;99102.61;;;21.88;55.84
50682;BME280;36779;52.168;20.878;2023-08-01T12:06:36;99098.55;;;21.90;55.95
50682;BME280;36779;52.168;20.878;2023-08-01T12:09:09;99097.38;;;21.92;55.95
50682;BME280;36779;52.168;20.878;2023-08-01T12:11:41;99090.52;;;21.95;55.98
50682;BME280;36779;52.168;20.878;2023-08-01T12:14:12;99093.26;;;21.97;56.03
50682;BME280;36779;52.168;20.878;2023-08-01T12:16:45;99086.36;;;21.99;56.04
50682;BME280;36779;52.168;20.878;2023-08-01T12:19:17;99087.98;;;22.01;56.11
50682;BME280;36779;52.168;20.878;2023-08-01T12:21:48;99085.52;;;22.04;56.09
50682;BME280;36779;52.168;20.878;2023-08-01T12:24:19;99083.02;;;22.08;56.14
50682;BME280;36779;52.168;20.878;2023-08-01T12:26:50;99082.25;;;22.09;56.03
50682;BME280;36779;52.168;20.878;2023-08-01T12:29:20;99086.43;;;22.08;56.06
50682;BME280;36779;52.168;20.878;2023-08-01T12:31:51;99085.77;;;22.04;56.07
50682;BME280;36779;52.168;20.878;2023-08-01T12:34:22;99081.65;;;22.02;56.04
50682;BME280;36779;52.168;20.878;2023-08-01T12:36:53;99080.61;;;22.03;56.16
50682;BME280;36779;52.168;20.878;2023-08-01T12:39:23;99077.15;;;22.03;56.12
50682;BME280;36779;52.168;20.878;2023-08-01T12:41:56;99073.14;;;22.06;56.17
50682;BME280;36779;52.168;20.878;2023-08-01T12:44:27;99068.75;;;22.13;56.26
50682;BME280;36779;52.168;20.878;2023-08-01T12:46:58;99067.21;;;22.17;56.33
50682;BME280;36779;52.168;20.878;2023-08-01T12:49:29;99067.70;;;22.18;56.30
50682;BME280;36779;52.168;20.878;2023-08-01T12:52:03;99069.98;;;22.25;56.37
50682;BME280;36779;52.168;20.878;2023-08-01T12:54:34;99064.88;;;22.31;56.31
50682;BME280;36779;52.168;20.878;2023-08-01T12:57:05;99062.92;;;22.38;56.33
50682;BME280;36779;52.168;20.878;2023-08-01T12:59:36;99062.45;;;22.45;56.28
50682;BME280;36779;52.168;20.878;2023-08-01T13:02:07;99057.44;;;22.48;56.29
50682;BME280;36779;52.168;20.878;2023-08-01T13:04:38;99053.80;;;22.53;56.34
50682;BME280;36779;52.168;20.878;2023-08-01T13:07:09;99049.67;;;22.56;56.27
50682;BME280;36779;52.168;20.878;2023-08-01T13:09:40;99046.51;;;22.58;56.22
50682;BME280;36779;52.168;20.878;2023-08-01T13:12:11;99048.14;;;22.59;56.21
50682;BME280;36779;52.168;20.878;2023-08-01T13:14:42;99045.09;;;22.63;56.32
50682;BME280;36779;52.168;20.878;2023-08-01T13:17:12;99039.71;;;22.69;56.33
50682;BME280;36779;52.168;20.878;2023-08-01T13:19:43;99038.61;;;22.76;56.32